createdAt,value
2023-04-30T00:00:54.882Z,21.60
2023-04-30T00:01:54.948Z,20.50
2023-04-30T00:02:54.955Z,21.90
2023-04-30T00:03:54.966Z,22.00
2023-04-30T00:04:54.922Z,23.60
2023-04-30T00:05:54.914Z,23.30
2023-04-30T00:06:54.841Z,22.20
2023-04-30T00:07:54.837Z,20.50
2023-04-30T00:08:54.804Z,19.70
2023-04-30T00:09:54.944Z,21.00
2023-04-30T00:10:54.793Z,22.40
2023-04-30T00:11:54.775Z,21.80
2023-04-30T00:12:54.793Z,19.70
2023-04-30T00:13:54.901Z,19.60
2023-04-30T00:14:54.758Z,20.00
2023-04-30T00:15:54.766Z,19.40
2023-04-30T00:16:54.739Z,19.50
2023-04-30T00:17:54.778Z,19.40
2023-04-30T00:18:54.737Z,20.40
2023-04-30T00:19:54.944Z,20.20
2023-04-30T00:20:54.692Z,20.40
2023-04-30T00:21:54.685Z,20.90
2023-04-30T00:22:54.671Z,21.10
2023-04-30T00:23:54.659Z,21.80
2023-04-30T00:24:54.665Z,22.20
2023-04-30T00:25:54.637Z,21.50
2023-04-30T00:26:54.669Z,22.70
2023-04-30T00:27:54.623Z,21.60
2023-04-30T00:28:54.616Z,23.30
2023-04-30T00:29:54.780Z,21.90
2023-04-30T00:30:54.610Z,21.60
2023-04-30T00:31:54.630Z,19.00
2023-04-30T00:32:54.616Z,20.80
2023-04-30T00:33:54.575Z,21.20
2023-04-30T00:34:54.552Z,21.20
2023-04-30T00:35:54.554Z,21.00
2023-04-30T00:36:54.532Z,20.40
2023-04-30T00:37:54.517Z,20.70
2023-04-30T00:38:54.508Z,20.20
2023-04-30T00:39:54.616Z,19.10
2023-04-30T00:40:54.518Z,21.90
2023-04-30T00:41:54.508Z,21.10
2023-04-30T00:42:54.457Z,18.80
2023-04-30T00:43:54.459Z,20.90
2023-04-30T00:44:54.449Z,26.30
2023-04-30T00:45:54.513Z,24.30
2023-04-30T00:46:54.458Z,24.80
2023-04-30T00:47:54.452Z,25.00
2023-04-30T00:48:54.412Z,25.60
2023-04-30T00:49:54.629Z,28.20
2023-04-30T00:50:54.402Z,30.40
2023-04-30T00:51:54.434Z,28.80
2023-04-30T00:52:54.365Z,27.70
2023-04-30T00:53:54.359Z,28.80
2023-04-30T00:54:54.434Z,26.60
2023-04-30T00:55:54.337Z,30.10
2023-04-30T00:56:54.328Z,29.10
2023-04-30T00:57:54.321Z,29.80
2023-04-30T00:58:54.322Z,32.20
2023-04-30T00:59:55.561Z,29.90
2023-04-30T01:00:54.301Z,27.60
2023-04-30T01:01:54.286Z,29.30
2023-04-30T01:02:54.393Z,26.10
2023-04-30T01:03:54.262Z,25.70
2023-04-30T01:04:54.271Z,26.00
2023-04-30T01:05:54.311Z,21.80
2023-04-30T01:06:54.218Z,21.60
2023-04-30T01:07:54.220Z,20.80
2023-04-30T01:08:54.217Z,20.50
2023-04-30T01:09:54.519Z,21.20
2023-04-30T01:10:54.201Z,20.70
2023-04-30T01:11:54.171Z,20.70
2023-04-30T01:12:54.239Z,20.90
2023-04-30T01:13:54.201Z,21.50
2023-04-30T01:14:54.141Z,24.40
2023-04-30T01:15:54.150Z,25.40
2023-04-30T01:16:54.134Z,25.70
2023-04-30T01:17:54.207Z,26.90
2023-04-30T01:18:54.253Z,28.60
2023-04-30T01:19:54.245Z,27.70
2023-04-30T01:20:54.080Z,30.50
2023-04-30T01:21:54.070Z,29.20
2023-04-30T01:22:54.086Z,32.50
2023-04-30T01:23:54.064Z,30.90
2023-04-30T01:24:54.061Z,32.00
2023-04-30T01:25:54.041Z,32.40
2023-04-30T01:26:54.022Z,41.10
2023-04-30T01:27:54.047Z,49.80
2023-04-30T01:28:54.009Z,42.80
2023-04-30T01:29:54.206Z,49.90
2023-04-30T01:30:54.018Z,62.70
2023-04-30T01:31:53.970Z,60.00
2023-04-30T01:32:54.417Z,102.70
2023-04-30T01:33:53.973Z,83.70
2023-04-30T01:34:53.944Z,72.50
2023-04-30T01:35:53.924Z,97.10
2023-04-30T01:36:53.919Z,143.20
2023-04-30T01:37:53.907Z,181.50
2023-04-30T01:38:53.925Z,104.00
2023-04-30T01:39:54.012Z,90.70
2023-04-30T01:40:53.904Z,143.30
2023-04-30T01:41:53.881Z,279.60
2023-04-30T01:42:53.874Z,186.30
2023-04-30T01:43:53.887Z,212.40
2023-04-30T01:44:53.858Z,149.70
2023-04-30T01:45:53.878Z,225.30
2023-04-30T01:46:53.830Z,290.50
2023-04-30T01:47:53.926Z,196.30
2023-04-30T01:48:53.803Z,265.30
2023-04-30T01:49:53.937Z,152.90
2023-04-30T01:50:53.811Z,133.60
2023-04-30T01:51:53.797Z,148.10
2023-04-30T01:52:53.817Z,259.80
2023-04-30T01:53:53.764Z,117.10
2023-04-30T01:54:53.752Z,117.30
2023-04-30T01:55:53.761Z,110.60
2023-04-30T01:56:53.730Z,134.20
2023-04-30T01:57:53.701Z,148.20
2023-04-30T01:58:53.768Z,137.40
2023-04-30T01:59:53.840Z,122.40
2023-04-30T02:00:53.692Z,154.80
2023-04-30T02:01:53.774Z,63.80
2023-04-30T02:02:53.751Z,49.90
2023-04-30T02:03:53.814Z,27.10
2023-04-30T02:04:53.660Z,23.50
2023-04-30T02:05:53.646Z,26.00
2023-04-30T02:06:53.687Z,31.70
2023-04-30T02:07:53.622Z,41.60
2023-04-30T02:08:53.607Z,25.00
2023-04-30T02:09:53.841Z,22.00
2023-04-30T02:10:53.639Z,24.50
2023-04-30T02:11:53.572Z,27.70
2023-04-30T02:12:53.581Z,36.80
2023-04-30T02:13:53.547Z,91.10
2023-04-30T02:14:53.555Z,97.80
2023-04-30T02:15:53.545Z,155.90
2023-04-30T02:16:53.525Z,241.80
2023-04-30T02:17:53.544Z,101.00
2023-04-30T02:18:53.509Z,109.20
2023-04-30T02:19:53.664Z,135.40
2023-04-30T02:20:53.507Z,116.10
2023-04-30T02:21:53.481Z,168.90
2023-04-30T02:22:53.487Z,155.50
2023-04-30T02:23:53.452Z,192.00
2023-04-30T02:24:53.466Z,141.50
2023-04-30T02:25:53.437Z,234.00
2023-04-30T02:26:53.418Z,100.40
2023-04-30T02:27:53.418Z,153.20
2023-04-30T02:28:53.440Z,139.30
2023-04-30T02:29:53.485Z,138.10
2023-04-30T02:30:53.392Z,132.00
2023-04-30T02:31:53.422Z,271.10
2023-04-30T02:32:53.421Z,170.50
2023-04-30T02:33:53.385Z,100.30
2023-04-30T02:34:53.357Z,109.80
2023-04-30T02:35:53.332Z,177.40
2023-04-30T02:36:53.365Z,267.60
2023-04-30T02:37:53.324Z,164.00
2023-04-30T02:38:53.314Z,101.90
2023-04-30T02:39:53.500Z,75.90
2023-04-30T02:40:53.292Z,118.30
2023-04-30T02:41:53.272Z,241.20
2023-04-30T02:42:53.258Z,245.40
2023-04-30T02:43:53.248Z,121.10
2023-04-30T02:44:53.254Z,194.20
2023-04-30T02:45:53.305Z,177.10
2023-04-30T02:46:53.233Z,129.10
2023-04-30T02:47:53.285Z,205.50
2023-04-30T02:48:53.211Z,153.60
2023-04-30T02:49:53.408Z,243.60
2023-04-30T02:50:53.243Z,152.10
2023-04-30T02:51:53.212Z,200.00
2023-04-30T02:52:53.172Z,232.10
2023-04-30T02:53:53.170Z,280.70
2023-04-30T02:54:53.149Z,165.80
2023-04-30T02:55:53.193Z,268.30
2023-04-30T02:56:53.143Z,128.40
2023-04-30T02:57:53.142Z,219.80
2023-04-30T02:58:53.130Z,146.80
2023-04-30T02:59:53.498Z,93.50
2023-04-30T03:00:53.111Z,212.10
2023-04-30T03:01:53.107Z,135.10
2023-04-30T03:02:53.223Z,126.30
2023-04-30T03:03:53.108Z,139.40
2023-04-30T03:04:53.054Z,160.70
2023-04-30T03:05:53.048Z,124.00
2023-04-30T03:06:53.041Z,122.60
2023-04-30T03:07:53.032Z,217.80
2023-04-30T03:08:53.025Z,283.50
2023-04-30T03:09:53.149Z,101.40
2023-04-30T03:10:52.981Z,118.50
2023-04-30T03:11:53.014Z,151.60
2023-04-30T03:12:52.968Z,196.40
2023-04-30T03:14:24.986Z,79.00
2023-04-30T03:14:52.953Z,197.00
2023-04-30T03:15:52.960Z,212.40
2023-04-30T03:16:52.919Z,110.50
2023-04-30T03:17:52.967Z,181.00
2023-04-30T03:18:52.907Z,278.60
2023-04-30T03:19:53.069Z,319.40
2023-04-30T03:20:52.887Z,489.90
2023-04-30T03:21:52.876Z,224.90
2023-04-30T03:22:52.878Z,183.20
2023-04-30T03:23:52.845Z,305.30
2023-04-30T03:24:52.873Z,199.50
2023-04-30T03:25:52.836Z,206.20
2023-04-30T03:26:52.935Z,311.10
2023-04-30T03:27:52.820Z,244.70
2023-04-30T03:28:52.802Z,196.70
2023-04-30T03:29:53.129Z,261.40
2023-04-30T03:30:52.791Z,344.50
2023-04-30T03:31:52.996Z,268.20
2023-04-30T03:32:52.878Z,115.90
2023-04-30T03:33:52.809Z,297.10
2023-04-30T03:34:52.769Z,184.10
2023-04-30T03:35:52.738Z,207.50
2023-04-30T03:36:52.748Z,269.40
2023-04-30T03:37:52.748Z,85.00
2023-04-30T03:38:52.714Z,243.90
2023-04-30T03:39:52.955Z,190.20
2023-04-30T03:40:52.719Z,141.20
2023-04-30T03:41:52.688Z,163.30
2023-04-30T03:42:52.685Z,107.20
2023-04-30T03:43:52.667Z,132.20
2023-04-30T03:44:52.670Z,94.90
2023-04-30T03:45:52.774Z,197.20
2023-04-30T03:46:52.659Z,147.70
2023-04-30T03:47:52.703Z,147.90
2023-04-30T03:48:52.613Z,265.30
2023-04-30T03:49:52.789Z,193.10
2023-04-30T03:50:52.660Z,292.30
2023-04-30T03:51:52.614Z,144.50
2023-04-30T03:52:52.589Z,252.80
2023-04-30T03:53:52.563Z,142.00
2023-04-30T03:54:52.582Z,164.90
2023-04-30T03:55:52.564Z,122.50
2023-04-30T03:56:52.669Z,169.70
2023-04-30T03:57:52.523Z,118.50
2023-04-30T03:58:52.513Z,184.30
2023-04-30T03:59:52.620Z,157.60
2023-04-30T04:00:52.504Z,200.30
2023-04-30T04:01:52.526Z,159.70
2023-04-30T04:02:52.568Z,127.60
2023-04-30T04:03:52.531Z,160.80
2023-04-30T04:04:52.476Z,164.80
2023-04-30T04:05:52.531Z,153.60
2023-04-30T04:06:52.472Z,126.00
2023-04-30T04:07:52.451Z,136.80
2023-04-30T04:08:52.447Z,151.30
2023-04-30T04:09:52.722Z,165.30
2023-04-30T04:10:52.415Z,165.80
2023-04-30T04:11:52.508Z,149.40
2023-04-30T04:12:52.387Z,160.40
2023-04-30T04:13:52.405Z,171.50
2023-04-30T04:14:52.368Z,127.30
2023-04-30T04:15:52.471Z,175.30
2023-04-30T04:16:52.377Z,135.30
2023-04-30T04:17:52.501Z,262.30
2023-04-30T04:18:52.355Z,193.70
2023-04-30T04:19:52.461Z,105.00
2023-04-30T04:20:52.322Z,185.50
2023-04-30T04:21:52.325Z,159.20
2023-04-30T04:22:52.299Z,107.80
2023-04-30T04:23:52.286Z,93.10
2023-04-30T04:24:52.390Z,73.40
2023-04-30T04:25:52.308Z,136.40
2023-04-30T04:26:52.259Z,273.70
2023-04-30T04:27:52.270Z,82.00
2023-04-30T04:28:52.237Z,193.50
2023-04-30T04:29:52.384Z,88.60
2023-04-30T04:30:52.217Z,74.20
2023-04-30T04:31:52.221Z,168.40
2023-04-30T04:32:52.282Z,69.70
2023-04-30T04:33:52.263Z,132.50
2023-04-30T04:34:52.195Z,96.90
2023-04-30T04:35:52.188Z,73.30
2023-04-30T04:36:52.148Z,97.30
2023-04-30T04:37:52.188Z,111.50
2023-04-30T04:38:52.144Z,77.90
2023-04-30T04:39:52.358Z,129.30
2023-04-30T04:40:52.146Z,81.50
2023-04-30T04:41:52.118Z,87.10
2023-04-30T04:42:52.095Z,136.80
2023-04-30T04:43:52.107Z,117.10
2023-04-30T04:44:52.082Z,84.90
2023-04-30T04:45:52.136Z,108.60
2023-04-30T04:46:52.230Z,86.50
2023-04-30T04:47:52.234Z,104.30
2023-04-30T04:48:52.046Z,72.10
2023-04-30T04:49:52.231Z,110.80
2023-04-30T04:50:52.044Z,113.30
2023-04-30T04:51:52.093Z,101.00
2023-04-30T04:52:52.066Z,151.10
2023-04-30T04:53:51.998Z,129.00
2023-04-30T04:54:51.985Z,86.10
2023-04-30T04:55:51.969Z,115.10
2023-04-30T04:56:51.991Z,105.00
2023-04-30T04:57:51.970Z,90.90
2023-04-30T04:58:51.946Z,104.20
2023-04-30T04:59:51.989Z,60.10
2023-04-30T05:00:51.926Z,118.30
2023-04-30T05:01:52.016Z,165.30
2023-04-30T05:02:52.011Z,129.20
2023-04-30T05:03:51.969Z,116.20
2023-04-30T05:04:51.900Z,106.90
2023-04-30T05:05:51.872Z,137.00
2023-04-30T05:06:51.866Z,111.90
2023-04-30T05:07:51.869Z,91.30
2023-04-30T05:08:51.854Z,143.60
2023-04-30T05:09:51.893Z,103.20
2023-04-30T05:10:51.836Z,129.20
2023-04-30T05:11:51.811Z,133.50
2023-04-30T05:12:51.806Z,131.40
2023-04-30T05:13:51.811Z,141.80
2023-04-30T05:14:51.785Z,180.80
2023-04-30T05:15:51.804Z,114.70
2023-04-30T05:16:51.774Z,138.10
2023-04-30T05:17:51.806Z,181.00
2023-04-30T05:18:51.734Z,110.90
2023-04-30T05:19:53.063Z,99.50
2023-04-30T05:20:51.748Z,149.20
2023-04-30T05:21:51.741Z,121.40
2023-04-30T05:22:51.719Z,121.90
2023-04-30T05:23:51.693Z,64.50
2023-04-30T05:24:51.682Z,55.90
2023-04-30T05:25:51.687Z,83.60
2023-04-30T05:26:51.680Z,39.00
2023-04-30T05:27:51.656Z,57.90
2023-04-30T05:28:51.639Z,163.80
2023-04-30T05:29:51.633Z,95.10
2023-04-30T05:30:51.616Z,139.20
2023-04-30T05:31:52.804Z,60.10
2023-04-30T05:32:51.605Z,63.00
2023-04-30T05:33:51.593Z,118.10
2023-04-30T05:34:51.581Z,71.20
2023-04-30T05:35:51.585Z,155.40
2023-04-30T05:36:51.575Z,134.10
2023-04-30T05:37:51.560Z,48.70
2023-04-30T05:38:51.542Z,84.40
2023-04-30T05:39:51.556Z,66.60
2023-04-30T05:40:51.519Z,72.30
2023-04-30T05:41:52.879Z,125.80
2023-04-30T05:42:52.511Z,91.00
2023-04-30T05:43:51.496Z,89.10
2023-04-30T05:44:51.504Z,84.20
2023-04-30T05:45:51.510Z,91.80
2023-04-30T05:46:51.476Z,61.00
2023-04-30T05:47:51.554Z,57.80
2023-04-30T05:48:51.448Z,54.90
2023-04-30T05:49:51.481Z,76.30
2023-04-30T05:50:51.431Z,91.10
2023-04-30T05:51:51.449Z,81.60
2023-04-30T05:52:51.406Z,67.20
2023-04-30T05:53:51.408Z,110.90
2023-04-30T05:54:51.417Z,59.00
2023-04-30T05:55:51.400Z,41.50
2023-04-30T05:56:51.374Z,65.50
2023-04-30T05:57:51.364Z,65.80
2023-04-30T05:58:51.362Z,42.50
2023-04-30T05:59:51.427Z,18.80
2023-04-30T06:00:51.327Z,24.50
2023-04-30T06:01:51.412Z,13.40
2023-04-30T06:02:51.345Z,14.90
2023-04-30T06:03:51.356Z,17.10
2023-04-30T06:04:51.361Z,16.50
2023-04-30T06:05:51.342Z,30.40
2023-04-30T06:06:51.292Z,18.10
2023-04-30T06:07:51.276Z,18.10
2023-04-30T06:08:51.274Z,13.00
2023-04-30T06:09:51.250Z,7.70
2023-04-30T06:10:51.294Z,16.10
2023-04-30T06:11:51.226Z,14.20
2023-04-30T06:12:51.254Z,17.10
2023-04-30T06:13:51.225Z,11.40
2023-04-30T06:14:51.193Z,15.00
2023-04-30T06:15:51.220Z,8.10
2023-04-30T06:16:51.217Z,11.40
2023-04-30T06:17:51.288Z,13.60
2023-04-30T06:18:53.449Z,8.70
2023-04-30T06:19:52.253Z,7.60
2023-04-30T06:20:51.136Z,9.50
2023-04-30T06:21:51.127Z,9.60
2023-04-30T06:22:51.139Z,8.00
2023-04-30T06:23:51.107Z,7.00
2023-04-30T06:24:51.097Z,6.80
2023-04-30T06:25:51.092Z,7.20
2023-04-30T06:26:51.100Z,7.00
2023-04-30T06:27:51.067Z,7.10
2023-04-30T06:28:51.060Z,7.40
2023-04-30T06:29:51.079Z,6.90
2023-04-30T06:30:51.080Z,7.10
2023-04-30T06:31:51.144Z,6.50
2023-04-30T06:32:52.120Z,7.00
2023-04-30T06:33:51.011Z,7.30
2023-04-30T06:34:51.040Z,6.60
2023-04-30T06:35:51.031Z,6.80
2023-04-30T06:36:50.985Z,7.30
2023-04-30T06:37:50.976Z,6.30
2023-04-30T06:38:50.960Z,6.60
2023-04-30T06:39:50.942Z,6.60
2023-04-30T06:40:50.943Z,6.60
2023-04-30T06:41:50.932Z,6.30
2023-04-30T06:42:50.919Z,6.40
2023-04-30T06:43:51.041Z,6.60
2023-04-30T06:44:50.909Z,6.40
2023-04-30T06:45:50.961Z,5.90
2023-04-30T06:46:50.900Z,6.30
2023-04-30T06:47:50.969Z,6.30
2023-04-30T06:48:50.879Z,6.10
2023-04-30T06:49:50.842Z,5.80
2023-04-30T06:50:51.839Z,6.50
2023-04-30T06:51:50.863Z,6.30
2023-04-30T06:52:50.832Z,6.10
2023-04-30T06:53:50.806Z,6.20
2023-04-30T06:54:50.865Z,6.20
2023-04-30T06:55:50.794Z,5.80
2023-04-30T06:56:50.780Z,6.30
2023-04-30T06:57:50.770Z,6.20
2023-04-30T06:58:50.757Z,5.90
2023-04-30T06:59:50.767Z,5.80
2023-04-30T07:00:50.818Z,5.90
2023-04-30T07:01:50.767Z,5.60
2023-04-30T07:02:50.848Z,5.40
2023-04-30T07:03:50.823Z,5.80
2023-04-30T07:04:50.739Z,5.50
2023-04-30T07:05:50.674Z,5.40
2023-04-30T07:06:50.677Z,5.70
2023-04-30T07:07:50.673Z,6.20
2023-04-30T07:08:50.666Z,5.40
2023-04-30T07:09:51.704Z,6.30
2023-04-30T07:10:50.656Z,5.80
2023-04-30T07:11:50.683Z,5.40
2023-04-30T07:12:50.618Z,5.70
2023-04-30T07:13:50.604Z,5.80
2023-04-30T07:14:50.608Z,5.30
2023-04-30T07:15:50.655Z,6.20
2023-04-30T07:16:50.587Z,5.80
2023-04-30T07:17:50.641Z,5.50
2023-04-30T07:18:50.567Z,5.30
2023-04-30T07:19:50.542Z,5.10
2023-04-30T07:20:50.533Z,5.40
2023-04-30T07:21:50.525Z,5.30
2023-04-30T07:22:50.518Z,5.10
2023-04-30T07:23:50.527Z,5.60
2023-04-30T07:24:50.524Z,5.90
2023-04-30T07:25:50.501Z,5.00
2023-04-30T07:26:50.487Z,5.00
2023-04-30T07:27:50.472Z,5.60
2023-04-30T07:28:50.482Z,4.50
2023-04-30T07:29:50.705Z,4.70
2023-04-30T07:30:50.446Z,4.60
2023-04-30T07:31:50.433Z,5.80
2023-04-30T07:32:50.455Z,4.30
2023-04-30T07:33:50.416Z,5.00
2023-04-30T07:34:50.419Z,7.00
2023-04-30T07:35:50.396Z,5.60
2023-04-30T07:36:50.385Z,4.60
2023-04-30T07:37:50.448Z,4.70
2023-04-30T07:38:50.375Z,4.90
2023-04-30T07:39:50.357Z,4.40
2023-04-30T07:40:50.340Z,3.90
2023-04-30T07:41:50.360Z,4.50
2023-04-30T07:42:50.378Z,4.30
2023-04-30T07:43:50.308Z,6.00
2023-04-30T07:44:50.312Z,5.10
2023-04-30T07:45:50.369Z,5.50
2023-04-30T07:46:50.288Z,5.00
2023-04-30T07:47:50.343Z,4.00
2023-04-30T07:48:50.284Z,4.40
2023-04-30T07:49:50.263Z,4.20
2023-04-30T07:50:52.584Z,3.90
2023-04-30T07:51:51.251Z,4.70
2023-04-30T07:52:50.232Z,4.80
2023-04-30T07:53:50.211Z,3.30
2023-04-30T07:54:50.226Z,3.10
2023-04-30T07:55:50.231Z,3.40
2023-04-30T07:56:50.176Z,3.40
2023-04-30T07:57:50.218Z,3.50
2023-04-30T07:58:50.182Z,6.40
2023-04-30T07:59:51.424Z,3.70
2023-04-30T08:00:51.144Z,3.50
2023-04-30T08:01:50.191Z,3.80
2023-04-30T08:02:50.320Z,2.70
2023-04-30T08:03:50.218Z,3.80
2023-04-30T08:04:50.106Z,4.70
2023-04-30T08:05:50.111Z,6.40
2023-04-30T08:06:50.277Z,3.60
2023-04-30T08:07:50.076Z,4.90
2023-04-30T08:08:50.573Z,4.20
2023-04-30T08:09:51.057Z,3.80
2023-04-30T08:10:50.097Z,3.40
2023-04-30T08:11:50.059Z,3.10
2023-04-30T08:12:50.049Z,4.00
2023-04-30T08:13:50.036Z,4.40
2023-04-30T08:14:50.020Z,3.70
2023-04-30T08:15:50.021Z,2.70
2023-04-30T08:16:50.145Z,4.20
2023-04-30T08:17:50.073Z,4.10
2023-04-30T08:18:49.983Z,3.60
2023-04-30T08:19:49.977Z,4.40
2023-04-30T08:20:49.997Z,4.20
2023-04-30T08:21:49.977Z,3.40
2023-04-30T08:22:49.959Z,4.80
2023-04-30T08:23:49.932Z,4.90
2023-04-30T08:24:49.914Z,5.10
2023-04-30T08:25:49.902Z,3.80
2023-04-30T08:26:49.938Z,5.30
2023-04-30T08:27:49.906Z,3.00
2023-04-30T08:28:49.883Z,4.30
2023-04-30T08:29:49.881Z,3.90
2023-04-30T08:30:49.876Z,5.20
2023-04-30T08:31:49.998Z,3.70
2023-04-30T08:32:49.903Z,3.10
2023-04-30T08:33:49.821Z,2.50
2023-04-30T08:34:49.813Z,4.10
2023-04-30T08:35:49.810Z,3.90
2023-04-30T08:36:49.846Z,5.30
2023-04-30T08:37:49.789Z,3.90
2023-04-30T08:38:49.772Z,4.00
2023-04-30T08:39:49.760Z,3.80
2023-04-30T08:40:51.939Z,3.90
2023-04-30T08:41:50.770Z,2.90
2023-04-30T08:42:49.750Z,3.70
2023-04-30T08:43:49.757Z,5.00
2023-04-30T08:44:49.721Z,3.70
2023-04-30T08:45:49.719Z,3.50
2023-04-30T08:46:49.698Z,2.90
2023-04-30T08:47:49.747Z,3.40
2023-04-30T08:48:49.720Z,3.40
2023-04-30T08:49:49.666Z,2.60
2023-04-30T08:50:49.666Z,2.70
2023-04-30T08:51:49.679Z,3.10
2023-04-30T08:52:49.665Z,4.20
2023-04-30T08:53:49.638Z,2.70
2023-04-30T08:54:49.649Z,3.10
2023-04-30T08:55:49.663Z,3.10
2023-04-30T08:56:49.601Z,3.40
2023-04-30T08:57:49.599Z,4.00
2023-04-30T08:58:49.600Z,2.50
2023-04-30T08:59:49.572Z,3.60
2023-04-30T09:00:49.588Z,3.00
2023-04-30T09:01:52.037Z,3.40
2023-04-30T09:02:49.650Z,4.10
2023-04-30T09:03:49.616Z,3.30
2023-04-30T09:04:49.526Z,3.40
2023-04-30T09:05:49.580Z,4.10
2023-04-30T09:06:49.578Z,4.90
2023-04-30T09:08:02.599Z,3.40
2023-04-30T09:08:51.478Z,3.20
2023-04-30T09:09:49.538Z,3.30
2023-04-30T09:10:49.475Z,2.60
2023-04-30T09:11:49.456Z,2.70
2023-04-30T09:12:49.438Z,3.70
2023-04-30T09:13:49.430Z,3.70
2023-04-30T09:15:21.367Z,3.20
2023-04-30T09:15:49.469Z,2.50
2023-04-30T09:16:49.445Z,2.70
2023-04-30T09:17:49.434Z,4.20
2023-04-30T09:18:49.397Z,3.10
2023-04-30T09:19:49.427Z,3.40
2023-04-30T09:20:49.402Z,3.20
2023-04-30T09:21:49.373Z,1.90
2023-04-30T09:22:49.562Z,3.00
2023-04-30T09:23:49.346Z,2.70
2023-04-30T09:24:49.335Z,2.80
2023-04-30T09:25:49.346Z,1.80
2023-04-30T09:26:49.346Z,3.80
2023-04-30T09:27:49.304Z,2.20
2023-04-30T09:28:49.300Z,2.40
2023-04-30T09:29:49.290Z,2.90
2023-04-30T09:30:49.301Z,2.40
2023-04-30T09:31:49.309Z,2.30
2023-04-30T09:32:49.293Z,2.70
2023-04-30T09:33:49.249Z,1.40
2023-04-30T09:34:49.278Z,2.60
2023-04-30T09:35:49.251Z,2.10
2023-04-30T09:36:49.220Z,1.80
2023-04-30T09:37:49.244Z,1.50
2023-04-30T09:38:49.216Z,2.10
2023-04-30T09:39:49.178Z,2.90
2023-04-30T09:40:49.196Z,2.40
2023-04-30T09:41:49.167Z,2.50
2023-04-30T09:42:49.158Z,4.40
2023-04-30T09:43:49.157Z,2.20
2023-04-30T09:44:49.143Z,1.90
2023-04-30T09:45:49.129Z,2.30
2023-04-30T09:46:49.172Z,2.30
2023-04-30T09:47:49.176Z,2.50
2023-04-30T09:48:49.102Z,3.20
2023-04-30T09:49:49.085Z,2.20
2023-04-30T09:50:49.098Z,3.50
2023-04-30T09:51:49.085Z,2.60
2023-04-30T09:52:49.079Z,4.00
2023-04-30T09:53:49.075Z,2.20
2023-04-30T09:54:49.083Z,1.60
2023-04-30T09:55:49.124Z,2.00
2023-04-30T09:56:49.027Z,1.70
2023-04-30T09:57:49.023Z,1.10
2023-04-30T09:58:49.061Z,2.30
2023-04-30T09:59:49.056Z,1.50
2023-04-30T10:00:49.023Z,0.70
2023-04-30T10:01:49.024Z,1.80
2023-04-30T10:02:49.040Z,1.90
2023-04-30T10:03:48.979Z,2.20
2023-04-30T10:04:48.974Z,2.20
2023-04-30T10:05:48.955Z,2.50
2023-04-30T10:06:49.084Z,1.70
2023-04-30T10:07:48.999Z,1.10
2023-04-30T10:08:48.915Z,1.60
2023-04-30T10:09:48.917Z,3.50
2023-04-30T10:10:48.911Z,1.00
2023-04-30T10:11:48.869Z,1.30
2023-04-30T10:12:48.898Z,1.10
2023-04-30T10:13:48.841Z,1.90
2023-04-30T10:14:48.881Z,1.50
2023-04-30T10:15:48.880Z,1.90
2023-04-30T10:16:48.936Z,2.30
2023-04-30T10:17:48.880Z,1.50
2023-04-30T10:18:48.845Z,3.20
2023-04-30T10:19:48.802Z,1.50
2023-04-30T10:20:48.814Z,1.40
2023-04-30T10:21:48.815Z,0.70
2023-04-30T10:22:48.790Z,1.00
2023-04-30T10:23:48.787Z,2.60
2023-04-30T10:24:48.758Z,1.10
2023-04-30T10:25:48.849Z,1.50
2023-04-30T10:26:48.769Z,1.10
2023-04-30T10:27:49.804Z,1.60
2023-04-30T10:28:48.763Z,2.90
2023-04-30T10:29:48.691Z,2.40
2023-04-30T10:30:48.696Z,0.90
2023-04-30T10:31:48.743Z,0.70
2023-04-30T10:32:48.732Z,1.60
2023-04-30T10:33:48.687Z,1.10
2023-04-30T10:34:48.690Z,1.10
2023-04-30T10:35:48.677Z,1.60
2023-04-30T10:36:48.734Z,1.60
2023-04-30T10:37:48.621Z,2.50
2023-04-30T10:38:48.675Z,2.10
2023-04-30T10:39:48.670Z,1.60
2023-04-30T10:40:48.588Z,1.20
2023-04-30T10:41:48.634Z,0.80
2023-04-30T10:42:48.568Z,2.30
2023-04-30T10:43:48.584Z,1.20
2023-04-30T10:44:48.545Z,1.30
2023-04-30T10:45:48.539Z,2.20
2023-04-30T10:46:48.531Z,1.00
2023-04-30T10:47:48.559Z,0.90
2023-04-30T10:48:48.538Z,1.30
2023-04-30T10:49:48.523Z,1.70
2023-04-30T10:50:48.503Z,0.40
2023-04-30T10:51:48.529Z,1.10
2023-04-30T10:52:48.497Z,1.30
2023-04-30T10:53:48.467Z,1.00
2023-04-30T10:54:48.487Z,2.00
2023-04-30T10:55:48.481Z,1.20
2023-04-30T10:56:48.456Z,0.70
2023-04-30T10:57:48.481Z,0.80
2023-04-30T10:58:48.422Z,3.00
2023-04-30T10:59:48.402Z,1.00
2023-04-30T11:00:48.464Z,0.60
2023-04-30T11:01:48.555Z,1.40
2023-04-30T11:02:48.453Z,0.90
2023-04-30T11:03:48.397Z,1.20
2023-04-30T11:04:48.420Z,1.20
2023-04-30T11:05:48.359Z,1.00
2023-04-30T11:06:48.505Z,1.90
2023-04-30T11:07:48.349Z,1.00
2023-04-30T11:08:48.319Z,1.20
2023-04-30T11:09:48.368Z,0.50
2023-04-30T11:10:48.327Z,1.60
2023-04-30T11:11:48.391Z,2.10
2023-04-30T11:12:48.294Z,1.20
2023-04-30T11:13:48.295Z,1.80
2023-04-30T11:14:48.292Z,1.90
2023-04-30T11:15:48.339Z,1.80
2023-04-30T11:16:48.280Z,0.90
2023-04-30T11:17:48.251Z,1.20
2023-04-30T11:18:48.255Z,1.30
2023-04-30T11:19:48.242Z,3.10
2023-04-30T11:20:48.272Z,1.50
2023-04-30T11:21:48.221Z,0.90
2023-04-30T11:22:48.185Z,0.70
2023-04-30T11:23:48.165Z,1.40
2023-04-30T11:24:48.190Z,1.80
2023-04-30T11:25:48.187Z,1.40
2023-04-30T11:26:48.173Z,1.30
2023-04-30T11:27:48.228Z,2.40
2023-04-30T11:28:48.148Z,2.50
2023-04-30T11:29:48.102Z,1.70
2023-04-30T11:30:48.115Z,1.10
2023-04-30T11:31:48.198Z,1.10
2023-04-30T11:32:48.240Z,3.30
2023-04-30T11:33:48.110Z,1.80
2023-04-30T11:34:48.061Z,1.50
2023-04-30T11:35:48.052Z,1.10
2023-04-30T11:36:48.061Z,2.40
2023-04-30T11:37:48.080Z,2.10
2023-04-30T11:38:48.025Z,0.90
2023-04-30T11:39:48.014Z,2.10
2023-04-30T11:40:48.030Z,1.80
2023-04-30T11:41:47.996Z,1.60
2023-04-30T11:42:47.994Z,2.40
2023-04-30T11:43:47.991Z,1.70
2023-04-30T11:44:47.974Z,2.20
2023-04-30T11:45:48.094Z,1.10
2023-04-30T11:46:47.999Z,1.10
2023-04-30T11:47:48.114Z,2.30
2023-04-30T11:48:47.909Z,1.40
2023-04-30T11:49:47.915Z,0.80
2023-04-30T11:50:47.930Z,1.30
2023-04-30T11:51:47.903Z,1.30
2023-04-30T11:52:48.015Z,1.90
2023-04-30T11:53:47.886Z,1.50
2023-04-30T11:54:47.852Z,1.30
2023-04-30T11:55:47.857Z,1.00
2023-04-30T11:56:47.819Z,1.00
2023-04-30T11:57:47.821Z,0.90
2023-04-30T11:58:47.819Z,1.60
2023-04-30T11:59:47.821Z,1.10
2023-04-30T12:00:47.861Z,1.00
2023-04-30T12:01:47.812Z,1.40
2023-04-30T12:02:48.126Z,1.80
2023-04-30T12:03:47.833Z,2.30
2023-04-30T12:04:47.738Z,1.50
2023-04-30T12:05:47.742Z,0.90
2023-04-30T12:06:47.787Z,0.70
2023-04-30T12:07:47.762Z,2.00
2023-04-30T12:08:47.707Z,2.50
2023-04-30T12:09:47.720Z,0.90
2023-04-30T12:10:47.696Z,0.90
2023-04-30T12:11:47.717Z,1.10
2023-04-30T12:12:47.665Z,2.60
2023-04-30T12:13:47.666Z,2.20
2023-04-30T12:14:47.652Z,2.00
2023-04-30T12:15:47.639Z,1.30
2023-04-30T12:16:47.698Z,1.20
2023-04-30T12:17:47.644Z,0.80
2023-04-30T12:18:47.629Z,1.40
2023-04-30T12:19:47.610Z,0.90
2023-04-30T12:20:47.603Z,1.50
2023-04-30T12:21:47.596Z,2.00
2023-04-30T12:22:47.574Z,1.20
2023-04-30T12:23:47.566Z,1.00
2023-04-30T12:24:47.555Z,2.70
2023-04-30T12:25:47.551Z,1.50
2023-04-30T12:26:47.564Z,1.20
2023-04-30T12:27:47.527Z,1.30
2023-04-30T12:28:47.556Z,1.10
2023-04-30T12:29:47.498Z,1.50
2023-04-30T12:30:47.519Z,0.80
2023-04-30T12:31:47.594Z,0.80
2023-04-30T12:32:47.491Z,1.00
2023-04-30T12:33:47.473Z,1.30
2023-04-30T12:34:47.447Z,0.90
2023-04-30T12:35:47.527Z,1.80
2023-04-30T12:36:47.451Z,1.00
2023-04-30T12:37:47.435Z,0.90
2023-04-30T12:38:47.458Z,0.80
2023-04-30T12:39:47.458Z,0.80
2023-04-30T12:40:47.395Z,1.70
2023-04-30T12:41:47.403Z,2.20
2023-04-30T12:42:47.364Z,1.00
2023-04-30T12:43:47.354Z,1.30
2023-04-30T12:44:47.410Z,2.90
2023-04-30T12:45:47.376Z,1.30
2023-04-30T12:46:47.629Z,1.20
2023-04-30T12:47:47.348Z,2.10
2023-04-30T12:48:47.306Z,0.70
2023-04-30T12:49:47.318Z,1.00
2023-04-30T12:50:47.299Z,1.50
2023-04-30T12:51:47.290Z,1.20
2023-04-30T12:52:47.283Z,1.90
2023-04-30T12:53:47.268Z,1.70
2023-04-30T12:54:47.306Z,1.40
2023-04-30T12:55:47.244Z,1.70
2023-04-30T12:56:47.225Z,1.40
2023-04-30T12:57:47.302Z,1.60
2023-04-30T12:58:47.225Z,2.00
2023-04-30T12:59:47.201Z,1.70